sensor_id;sensor_type;location;lat;lon;timestamp;pressure;altitude;pressure_sealevel;temperature;humidity
59240;BME280;45010;53.640;10.578;2023-03-04T00:02:37;101273.44;;;25.63;31.10
59240;BME280;45010;53.640;10.578;2023-03-04T00:05:37;101281.47;;;25.63;31.44
59240;BME280;45010;53.640;10.578;2023-03-04T00:08:37;101282.50;;;25.62;31.42
59240;BME280;45010;53.640;10.578;2023-03-04T00:11:38;101262.00;;;25.56;31.25
59240;BME280;45010;53.640;10.578;2023-03-04T00:14:38;101258.31;;;25.57;31.43
59240;BME280;45010;53.640;10.578;2023-03-04T00:17:39;101275.50;;;25.61;31.44
59240;BME280;45010;53.640;10.578;2023-03-04T00:20:39;101270.16;;;25.61;31.43
59240;BME280;45010;53.640;10.578;2023-03-04T00:23:39;101262.75;;;25.63;31.48
59240;BME280;45010;53.640;10.578;2023-03-04T00:26:41;101256.38;;;25.64;31.20
59240;BME280;45010;53.640;10.578;2023-03-04T00:29:41;101265.28;;;25.58;31.36
59240;BME280;45010;53.640;10.578;2023-03-04T00:32:41;101263.81;;;25.62;31.01
59240;BME280;45010;53.640;10.578;2023-03-04T00:35:42;101268.09;;;25.63;31.38
59240;BME280;45010;53.640;10.578;2023-03-04T00:38:42;101255.53;;;25.64;31.43
59240;BME280;45010;53.640;10.578;2023-03-04T00:41:42;101249.16;;;25.65;31.24
59240;BME280;45010;53.640;10.578;2023-03-04T00:44:43;101239.78;;;25.62;31.25
59240;BME280;45010;53.640;10.578;2023-03-04T00:47:43;101235.69;;;25.60;31.56
59240;BME280;45010;53.640;10.578;2023-03-04T00:50:43;101240.94;;;25.67;31.15
59240;BME280;45010;53.640;10.578;2023-03-04T00:53:44;101235.59;;;25.67;31.06
59240;BME280;45010;53.640;10.578;2023-03-04T00:56:44;101235.00;;;25.64;31.15
59240;BME280;45010;53.640;10.578;2023-03-04T00:59:45;101225.38;;;25.63;31.23
59240;BME280;45010;53.640;10.578;2023-03-04T01:02:45;101211.41;;;25.61;31.01
59240;BME280;45010;53.640;10.578;2023-03-04T01:05:45;101215.59;;;25.57;31.03
59240;BME280;45010;53.640;10.578;2023-03-04T01:08:46;101207.78;;;25.56;30.98
59240;BME280;45010;53.640;10.578;2023-03-04T01:11:46;101209.06;;;25.53;30.84
59240;BME280;45010;53.640;10.578;2023-03-04T01:14:46;101218.09;;;25.52;30.93
59240;BME280;45010;53.640;10.578;2023-03-04T01:17:47;101216.69;;;25.49;31.01
59240;BME280;45010;53.640;10.578;2023-03-04T01:20:47;101215.28;;;25.47;31.06
59240;BME280;45010;53.640;10.578;2023-03-04T01:23:48;101202.81;;;25.41;30.95
59240;BME280;45010;53.640;10.578;2023-03-04T01:26:48;101192.72;;;25.43;30.77
59240;BME280;45010;53.640;10.578;2023-03-04T01:29:48;101195.84;;;25.39;31.19
59240;BME280;45010;53.640;10.578;2023-03-04T01:32:49;101184.56;;;25.37;31.03
59240;BME280;45010;53.640;10.578;2023-03-04T01:35:49;101192.00;;;25.35;30.93
59240;BME280;45010;53.640;10.578;2023-03-04T01:38:50;101171.09;;;25.32;31.20
59240;BME280;45010;53.640;10.578;2023-03-04T01:41:50;101181.16;;;25.30;31.01
59240;BME280;45010;53.640;10.578;2023-03-04T01:44:50;101184.31;;;25.27;31.00
59240;BME280;45010;53.640;10.578;2023-03-04T01:47:51;101172.00;;;25.26;31.02
59240;BME280;45010;53.640;10.578;2023-03-04T01:50:52;101160.13;;;25.22;31.00
59240;BME280;45010;53.640;10.578;2023-03-04T01:53:52;101153.16;;;25.21;30.87
59240;BME280;45010;53.640;10.578;2023-03-04T01:56:54;101151.25;;;25.09;30.92
59240;BME280;45010;53.640;10.578;2023-03-04T02:03:16;101157.75;;;25.14;30.96
59240;BME280;45010;53.640;10.578;2023-03-04T02:06:20;101154.50;;;25.11;31.00
59240;BME280;45010;53.640;10.578;2023-03-04T02:09:21;101157.38;;;25.10;30.97
59240;BME280;45010;53.640;10.578;2023-03-04T02:12:21;101149.63;;;25.08;30.93
59240;BME280;45010;53.640;10.578;2023-03-04T02:15:22;101139.84;;;25.02;30.68
59240;BME280;45010;53.640;10.578;2023-03-04T02:18:23;101126.38;;;24.97;31.01
59240;BME280;45010;53.640;10.578;2023-03-04T02:21:32;101145.19;;;25.02;31.08
59240;BME280;45010;53.640;10.578;2023-03-04T02:24:44;101137.47;;;24.94;31.12
59240;BME280;45010;53.640;10.578;2023-03-04T02:27:46;101140.75;;;24.96;31.11
59240;BME280;45010;53.640;10.578;2023-03-04T02:30:46;101138.50;;;24.93;31.15
59240;BME280;45010;53.640;10.578;2023-03-04T02:33:47;101127.31;;;24.84;31.02
59240;BME280;45010;53.640;10.578;2023-03-04T02:36:50;101131.84;;;24.83;31.02
59240;BME280;45010;53.640;10.578;2023-03-04T02:39:51;101136.72;;;24.87;31.11
59240;BME280;45010;53.640;10.578;2023-03-04T02:42:51;101133.47;;;24.84;31.19
59240;BME280;45010;53.640;10.578;2023-03-04T02:45:52;101130.22;;;24.82;31.14
59240;BME280;45010;53.640;10.578;2023-03-04T02:48:52;101128.75;;;24.80;31.24
59240;BME280;45010;53.640;10.578;2023-03-04T02:55:00;101112.41;;;24.76;31.22
59240;BME280;45010;53.640;10.578;2023-03-04T02:58:01;101118.19;;;24.73;31.21
59240;BME280;45010;53.640;10.578;2023-03-04T03:01:02;101122.13;;;24.70;31.10
59240;BME280;45010;53.640;10.578;2023-03-04T03:04:02;101114.31;;;24.69;31.22
59240;BME280;45010;53.640;10.578;2023-03-04T03:07:02;101121.75;;;24.67;31.23
59240;BME280;45010;53.640;10.578;2023-03-04T03:10:03;101092.41;;;24.48;31.26
59240;BME280;45010;53.640;10.578;2023-03-04T03:13:04;101088.84;;;24.54;31.19
59240;BME280;45010;53.640;10.578;2023-03-04T03:16:04;101106.63;;;24.61;31.31
59240;BME280;45010;53.640;10.578;2023-03-04T03:19:05;101100.69;;;24.58;31.37
59240;BME280;45010;53.640;10.578;2023-03-04T03:22:05;101101.72;;;24.57;31.43
59240;BME280;45010;53.640;10.578;2023-03-04T03:25:06;101080.09;;;24.47;31.33
59240;BME280;45010;53.640;10.578;2023-03-04T03:28:07;101102.97;;;24.55;31.23
59240;BME280;45010;53.640;10.578;2023-03-04T03:31:07;101099.72;;;24.53;31.35
59240;BME280;45010;53.640;10.578;2023-03-04T03:34:07;101094.84;;;24.50;31.32
59240;BME280;45010;53.640;10.578;2023-03-04T03:37:08;101083.38;;;24.49;31.58
59240;BME280;45010;53.640;10.578;2023-03-04T03:40:08;101090.75;;;24.47;31.49
59240;BME280;45010;53.640;10.578;2023-03-04T03:43:09;101095.50;;;24.45;31.41
59240;BME280;45010;53.640;10.578;2023-03-04T03:46:10;101091.22;;;24.44;31.50
59240;BME280;45010;53.640;10.578;2023-03-04T03:49:10;101082.00;;;24.40;31.48
59240;BME280;45010;53.640;10.578;2023-03-04T03:52:10;101078.56;;;24.39;31.38
59240;BME280;45010;53.640;10.578;2023-03-04T03:55:11;101085.13;;;24.37;31.61
59240;BME280;45010;53.640;10.578;2023-03-04T03:58:11;101079.19;;;24.35;31.52
59240;BME280;45010;53.640;10.578;2023-03-04T04:01:12;101080.22;;;24.34;31.49
59240;BME280;45010;53.640;10.578;2023-03-04T04:04:12;101082.31;;;24.31;31.72
59240;BME280;45010;53.640;10.578;2023-03-04T04:07:13;101072.69;;;24.30;31.65
59240;BME280;45010;53.640;10.578;2023-03-04T04:10:13;101063.06;;;24.29;31.55
59240;BME280;45010;53.640;10.578;2023-03-04T04:13:13;101065.13;;;24.27;31.67
59240;BME280;45010;53.640;10.578;2023-03-04T04:16:14;101063.94;;;24.23;31.70
59240;BME280;45010;53.640;10.578;2023-03-04T04:19:18;101063.94;;;24.23;31.68
59240;BME280;45010;53.640;10.578;2023-03-04T04:22:19;101059.94;;;24.14;31.74
59240;BME280;45010;53.640;10.578;2023-03-04T04:25:20;101065.63;;;24.17;31.74
59240;BME280;45010;53.640;10.578;2023-03-04T04:28:21;101064.38;;;24.20;31.80
59240;BME280;45010;53.640;10.578;2023-03-04T04:31:21;101062.75;;;24.19;31.65
59240;BME280;45010;53.640;10.578;2023-03-04T04:34:21;101062.13;;;24.17;31.84
59240;BME280;45010;53.640;10.578;2023-03-04T04:37:21;101047.50;;;24.08;31.73
59240;BME280;45010;53.640;10.578;2023-03-04T04:40:22;101054.16;;;24.17;31.92
59240;BME280;45010;53.640;10.578;2023-03-04T04:43:22;101063.19;;;24.16;31.84
59240;BME280;45010;53.640;10.578;2023-03-04T04:46:22;101054.59;;;24.14;31.70
59240;BME280;45010;53.640;10.578;2023-03-04T04:49:23;101055.63;;;24.13;31.95
59240;BME280;45010;53.640;10.578;2023-03-04T04:52:23;101055.84;;;24.11;31.73
59240;BME280;45010;53.640;10.578;2023-03-04T04:55:23;101047.03;;;24.11;31.94
59240;BME280;45010;53.640;10.578;2023-03-04T04:58:24;101056.91;;;24.10;31.80
59240;BME280;45010;53.640;10.578;2023-03-04T05:01:24;101048.28;;;24.08;31.92
59240;BME280;45010;53.640;10.578;2023-03-04T05:04:25;101050.16;;;24.08;31.89
59240;BME280;45010;53.640;10.578;2023-03-04T05:07:25;101050.16;;;24.08;32.07
59240;BME280;45010;53.640;10.578;2023-03-04T05:10:25;101045.84;;;24.07;32.03
59240;BME280;45010;53.640;10.578;2023-03-04T05:13:26;101057.53;;;24.05;32.07
59240;BME280;45010;53.640;10.578;2023-03-04T05:16:27;101030.56;;;23.95;32.13
59240;BME280;45010;53.640;10.578;2023-03-04T05:19:27;101042.78;;;24.03;31.82
59240;BME280;45010;53.640;10.578;2023-03-04T05:22:27;101047.28;;;24.02;32.07
59240;BME280;45010;53.640;10.578;2023-03-04T05:25:28;101053.66;;;24.01;32.14
59240;BME280;45010;53.640;10.578;2023-03-04T05:28:29;101049.38;;;24.00;31.95
59240;BME280;45010;53.640;10.578;2023-03-04T05:31:29;101060.03;;;24.00;31.90
59240;BME280;45010;53.640;10.578;2023-03-04T05:34:30;101058.41;;;23.99;32.08
59240;BME280;45010;53.640;10.578;2023-03-04T05:37:30;101049.81;;;23.97;31.93
59240;BME280;45010;53.640;10.578;2023-03-04T05:40:31;101047.81;;;23.92;31.92
59240;BME280;45010;53.640;10.578;2023-03-04T05:43:32;101039.81;;;23.92;32.01
59240;BME280;45010;53.640;10.578;2023-03-04T05:46:34;101050.00;;;23.96;31.95
59240;BME280;45010;53.640;10.578;2023-03-04T05:49:34;101056.38;;;23.95;32.03
59240;BME280;45010;53.640;10.578;2023-03-04T05:52:35;101051.53;;;23.85;32.11
59240;BME280;45010;53.640;10.578;2023-03-04T05:55:35;101075.84;;;23.95;32.11
59240;BME280;45010;53.640;10.578;2023-03-04T05:58:36;101084.06;;;23.94;32.24
59240;BME280;45010;53.640;10.578;2023-03-04T06:01:36;101075.25;;;23.93;32.36
59240;BME280;45010;53.640;10.578;2023-03-04T06:04:36;101078.94;;;23.92;32.05
59240;BME280;45010;53.640;10.578;2023-03-04T06:07:37;101082.63;;;23.91;32.07
59240;BME280;45010;53.640;10.578;2023-03-04T06:10:39;101073.69;;;23.85;32.11
59240;BME280;45010;53.640;10.578;2023-03-04T06:13:39;101086.34;;;23.90;32.17
59240;BME280;45010;53.640;10.578;2023-03-04T06:16:40;101081.22;;;23.88;32.24
59240;BME280;45010;53.640;10.578;2023-03-04T06:19:40;101076.94;;;23.87;32.29
59240;BME280;45010;53.640;10.578;2023-03-04T06:22:41;101077.75;;;23.88;32.03
59240;BME280;45010;53.640;10.578;2023-03-04T06:25:41;101087.78;;;23.86;32.21
59240;BME280;45010;53.640;10.578;2023-03-04T06:28:43;101087.78;;;23.86;32.05
59240;BME280;45010;53.640;10.578;2023-03-04T06:31:43;101078.78;;;23.87;32.04
59240;BME280;45010;53.640;10.578;2023-03-04T06:34:44;101090.47;;;23.86;32.33
59240;BME280;45010;53.640;10.578;2023-03-04T06:37:44;101089.66;;;23.85;32.37
59240;BME280;45010;53.640;10.578;2023-03-04T06:40:44;101094.16;;;23.85;32.36
59240;BME280;45010;53.640;10.578;2023-03-04T06:43:45;101103.19;;;23.84;32.35
59240;BME280;45010;53.640;10.578;2023-03-04T06:46:45;101077.84;;;23.74;32.48
59240;BME280;45010;53.640;10.578;2023-03-04T06:49:45;101103.19;;;23.84;32.32
59240;BME280;45010;53.640;10.578;2023-03-04T06:52:46;101099.94;;;23.82;32.05
59240;BME280;45010;53.640;10.578;2023-03-04T06:55:47;101102.44;;;23.76;32.40
59240;BME280;45010;53.640;10.578;2023-03-04T06:58:48;101110.59;;;23.82;32.48
59240;BME280;45010;53.640;10.578;2023-03-04T07:01:48;101108.94;;;23.81;32.03
59240;BME280;45010;53.640;10.578;2023-03-04T07:04:49;101100.16;;;23.80;32.39
59240;BME280;45010;53.640;10.578;2023-03-04T07:07:49;101108.94;;;23.81;32.16
59240;BME280;45010;53.640;10.578;2023-03-04T07:10:49;101102.59;;;23.82;32.38
59240;BME280;45010;53.640;10.578;2023-03-04T07:13:50;101105.09;;;23.76;32.47
59240;BME280;45010;53.640;10.578;2023-03-04T07:16:51;101107.09;;;23.81;32.68
59240;BME280;45010;53.640;10.578;2023-03-04T07:19:51;101108.94;;;23.81;32.39
59240;BME280;45010;53.640;10.578;2023-03-04T07:22:52;101107.94;;;23.82;32.61
59240;BME280;45010;53.640;10.578;2023-03-04T07:25:53;101108.94;;;23.81;32.41
59240;BME280;45010;53.640;10.578;2023-03-04T07:28:53;101091.03;;;23.69;32.36
59240;BME280;45010;53.640;10.578;2023-03-04T07:31:56;101112.03;;;23.77;32.32
59240;BME280;45010;53.640;10.578;2023-03-04T07:34:56;101109.38;;;23.77;32.14
59240;BME280;45010;53.640;10.578;2023-03-04T07:37:57;101109.38;;;23.77;32.53
59240;BME280;45010;53.640;10.578;2023-03-04T07:40:57;101101.22;;;23.72;32.54
59240;BME280;45010;53.640;10.578;2023-03-04T07:43:58;101114.72;;;23.77;32.42
59240;BME280;45010;53.640;10.578;2023-03-04T07:46:58;101120.88;;;23.78;32.59
59240;BME280;45010;53.640;10.578;2023-03-04T07:49:59;101113.88;;;23.77;32.62
59240;BME280;45010;53.640;10.578;2023-03-04T07:52:59;101111.22;;;23.77;32.00
59240;BME280;45010;53.640;10.578;2023-03-04T07:55:59;101113.88;;;23.77;32.27
59240;BME280;45010;53.640;10.578;2023-03-04T07:59:00;101106.94;;;23.76;32.20
59240;BME280;45010;53.640;10.578;2023-03-04T08:02:01;101118.41;;;23.76;32.36
59240;BME280;45010;53.640;10.578;2023-03-04T08:05:01;101122.09;;;23.75;32.08
59240;BME280;45010;53.640;10.578;2023-03-04T08:08:01;101117.66;;;23.69;32.48
59240;BME280;45010;53.640;10.578;2023-03-04T08:11:07;101123.78;;;23.70;32.59
59240;BME280;45010;53.640;10.578;2023-03-04T08:14:07;101131.09;;;23.74;32.34
59240;BME280;45010;53.640;10.578;2023-03-04T08:17:08;101128.69;;;23.73;32.70
59240;BME280;45010;53.640;10.578;2023-03-04T08:20:09;101136.44;;;23.74;32.46
59240;BME280;45010;53.640;10.578;2023-03-04T08:23:10;101138.94;;;23.69;32.77
59240;BME280;45010;53.640;10.578;2023-03-04T08:26:14;101131.97;;;23.68;32.47
59240;BME280;45010;53.640;10.578;2023-03-04T08:29:22;101144.66;;;23.73;32.84
59240;BME280;45010;53.640;10.578;2023-03-04T08:32:22;101145.91;;;23.70;32.55
59240;BME280;45010;53.640;10.578;2023-03-04T08:35:23;101143.81;;;23.72;32.69
59240;BME280;45010;53.640;10.578;2023-03-04T08:38:23;101144.66;;;23.73;33.03
59240;BME280;45010;53.640;10.578;2023-03-04T08:41:24;101145.25;;;23.75;33.37
59240;BME280;45010;53.640;10.578;2023-03-04T08:44:26;101140.56;;;23.70;33.59
59240;BME280;45010;53.640;10.578;2023-03-04T08:47:26;101141.16;;;23.72;33.76
59240;BME280;45010;53.640;10.578;2023-03-04T08:50:27;101145.63;;;23.78;33.57
59240;BME280;45010;53.640;10.578;2023-03-04T08:53:28;101141.72;;;23.81;33.56
59240;BME280;45010;53.640;10.578;2023-03-04T08:56:28;101155.41;;;23.85;33.70
59240;BME280;45010;53.640;10.578;2023-03-04T08:59:28;101156.00;;;23.87;33.58
59240;BME280;45010;53.640;10.578;2023-03-04T09:02:29;101153.75;;;23.90;33.44
59240;BME280;45010;53.640;10.578;2023-03-04T09:05:30;101144.94;;;23.90;33.64
59240;BME280;45010;53.640;10.578;2023-03-04T09:08:31;101148.38;;;23.97;33.43
59240;BME280;45010;53.640;10.578;2023-03-04T09:11:31;101149.56;;;24.01;33.05
59240;BME280;45010;53.640;10.578;2023-03-04T09:14:32;101140.53;;;24.02;33.12
59240;BME280;45010;53.640;10.578;2023-03-04T09:17:34;101149.75;;;24.07;33.25
59240;BME280;45010;53.640;10.578;2023-03-04T09:20:35;101145.88;;;24.09;33.02
59240;BME280;45010;53.640;10.578;2023-03-04T09:23:36;101094.59;;;23.82;33.12
59240;BME280;45010;53.640;10.578;2023-03-04T09:26:37;101148.06;;;24.12;33.09
59240;BME280;45010;53.640;10.578;2023-03-04T09:29:37;101146.81;;;24.15;33.18
59240;BME280;45010;53.640;10.578;2023-03-04T09:32:38;101132.09;;;24.12;33.06
59240;BME280;45010;53.640;10.578;2023-03-04T09:35:38;101142.91;;;24.17;33.04
59240;BME280;45010;53.640;10.578;2023-03-04T09:38:39;101141.50;;;24.15;32.57
59240;BME280;45010;53.640;10.578;2023-03-04T09:41:42;101128.44;;;24.07;33.00
59240;BME280;45010;53.640;10.578;2023-03-04T09:44:45;101140.22;;;24.24;32.78
59240;BME280;45010;53.640;10.578;2023-03-04T09:47:47;101147.59;;;24.22;32.67
59240;BME280;45010;53.640;10.578;2023-03-04T09:54:11;101130.72;;;24.28;32.59
59240;BME280;45010;53.640;10.578;2023-03-04T09:58:06;101154.28;;;24.31;32.47
59240;BME280;45010;53.640;10.578;2023-03-04T10:00:46;101151.63;;;24.31;32.59
59240;BME280;45010;53.640;10.578;2023-03-04T10:03:57;101152.19;;;24.34;32.53
59240;BME280;45010;53.640;10.578;2023-03-04T10:07:01;101142.16;;;24.36;32.73
59240;BME280;45010;53.640;10.578;2023-03-04T10:10:06;101118.81;;;24.31;32.53
59240;BME280;45010;53.640;10.578;2023-03-04T10:13:14;101098.00;;;24.21;32.69
59240;BME280;45010;53.640;10.578;2023-03-04T10:16:20;101132.66;;;24.40;32.33
59240;BME280;45010;53.640;10.578;2023-03-04T10:19:29;101135.94;;;24.42;32.45
59240;BME280;45010;53.640;10.578;2023-03-04T10:22:52;101144.53;;;24.44;32.18
59240;BME280;45010;53.640;10.578;2023-03-04T10:25:55;101137.19;;;24.39;32.26
59240;BME280;45010;53.640;10.578;2023-03-04T10:28:57;101157.66;;;24.45;32.41
59240;BME280;45010;53.640;10.578;2023-03-04T10:31:58;101160.06;;;24.47;32.27
59240;BME280;45010;53.640;10.578;2023-03-04T10:34:58;101153.72;;;24.48;32.53
59240;BME280;45010;53.640;10.578;2023-03-04T10:38:01;101146.97;;;24.45;32.27
59240;BME280;45010;53.640;10.578;2023-03-04T10:41:31;101171.94;;;24.51;32.25
59240;BME280;45010;53.640;10.578;2023-03-04T10:44:33;101151.06;;;24.48;32.26
59240;BME280;45010;53.640;10.578;2023-03-04T10:47:34;101155.72;;;24.53;32.19
59240;BME280;45010;53.640;10.578;2023-03-04T10:50:34;101158.19;;;24.54;32.08
59240;BME280;45010;53.640;10.578;2023-03-04T10:53:40;101153.06;;;24.53;32.04
59240;BME280;45010;53.640;10.578;2023-03-04T10:56:51;101159.13;;;24.60;32.23
59240;BME280;45010;53.640;10.578;2023-03-04T10:59:59;101154.63;;;24.61;31.92
59240;BME280;45010;53.640;10.578;2023-03-04T11:03:23;101161.59;;;24.62;32.02
59240;BME280;45010;53.640;10.578;2023-03-04T11:06:23;101157.88;;;24.63;31.99
59240;BME280;45010;53.640;10.578;2023-03-04T11:09:29;101157.88;;;24.63;32.10
59240;BME280;45010;53.640;10.578;2023-03-04T11:12:33;101154.19;;;24.64;32.11
59240;BME280;45010;53.640;10.578;2023-03-04T11:19:04;101155.00;;;24.64;31.95
59240;BME280;45010;53.640;10.578;2023-03-04T11:22:05;101160.72;;;24.68;31.83
59240;BME280;45010;53.640;10.578;2023-03-04T11:25:24;101153.75;;;24.67;31.86
59240;BME280;45010;53.640;10.578;2023-03-04T11:34:58;101157.00;;;24.69;31.54
59240;BME280;45010;53.640;10.578;2023-03-04T11:38:21;101136.56;;;24.63;31.64
59240;BME280;45010;53.640;10.578;2023-03-04T11:41:35;101129.66;;;24.55;31.51
59240;BME280;45010;53.640;10.578;2023-03-04T11:44:37;101146.34;;;24.69;31.61
59240;BME280;45010;53.640;10.578;2023-03-04T11:47:53;101145.28;;;24.70;31.61
59240;BME280;45010;53.640;10.578;2023-03-04T11:51:03;101131.69;;;24.60;31.85
59240;BME280;45010;53.640;10.578;2023-03-04T11:54:31;101136.84;;;24.73;31.87
59240;BME280;45010;53.640;10.578;2023-03-04T12:01:23;101141.38;;;24.72;31.74
59240;BME280;45010;53.640;10.578;2023-03-04T12:14:52;101134.34;;;24.78;31.29
59240;BME280;45010;53.640;10.578;2023-03-04T12:18:02;101132.25;;;24.80;31.64
59240;BME280;45010;53.640;10.578;2023-03-04T12:21:27;101127.53;;;24.82;31.67
59240;BME280;45010;53.640;10.578;2023-03-04T12:31:26;101105.31;;;24.89;31.50
59240;BME280;45010;53.640;10.578;2023-03-04T12:37:51;101102.19;;;24.92;31.44
59240;BME280;45010;53.640;10.578;2023-03-04T12:41:31;101112.88;;;24.92;31.63
59240;BME280;45010;53.640;10.578;2023-03-04T12:44:43;101105.44;;;24.94;31.60
59240;BME280;45010;53.640;10.578;2023-03-04T12:54:30;101101.31;;;24.98;31.56
59240;BME280;45010;53.640;10.578;2023-03-04T12:57:31;101102.09;;;24.98;31.36
59240;BME280;45010;53.640;10.578;2023-03-04T13:00:54;101091.06;;;24.95;31.37
59240;BME280;45010;53.640;10.578;2023-03-04T13:07:13;101085.50;;;24.96;31.30
59240;BME280;45010;53.640;10.578;2023-03-04T13:10:18;101085.28;;;24.98;31.34
59240;BME280;45010;53.640;10.578;2023-03-04T13:16:44;101088.53;;;25.00;31.26
59240;BME280;45010;53.640;10.578;2023-03-04T13:19:57;101093.81;;;25.07;31.36
59240;BME280;45010;53.640;10.578;2023-03-04T13:26:28;101069.72;;;24.95;30.98
59240;BME280;45010;53.640;10.578;2023-03-04T13:32:38;101084.75;;;25.08;31.15
59240;BME280;45010;53.640;10.578;2023-03-04T13:39:40;101079.84;;;25.05;31.36
59240;BME280;45010;53.640;10.578;2023-03-04T13:42:41;101088.81;;;25.10;31.19
59240;BME280;45010;53.640;10.578;2023-03-04T13:45:42;101087.19;;;25.09;31.16
59240;BME280;45010;53.640;10.578;2023-03-04T13:51:46;101085.94;;;25.12;31.08
59240;BME280;45010;53.640;10.578;2023-03-04T13:54:46;101090.44;;;25.11;31.15
59240;BME280;45010;53.640;10.578;2023-03-04T13:57:48;101085.13;;;25.11;31.20
59240;BME280;45010;53.640;10.578;2023-03-04T14:00:53;101075.81;;;25.02;31.04
59240;BME280;45010;53.640;10.578;2023-03-04T14:03:54;101087.19;;;25.09;29.82
59240;BME280;45010;53.640;10.578;2023-03-04T14:06:57;101088.47;;;25.07;29.95
59240;BME280;45010;53.640;10.578;2023-03-04T14:10:18;101091.34;;;25.05;30.26
59240;BME280;45010;53.640;10.578;2023-03-04T14:13:19;101089.72;;;25.04;30.52
59240;BME280;45010;53.640;10.578;2023-03-04T14:16:23;101080.53;;;25.00;30.32
59240;BME280;45010;53.640;10.578;2023-03-04T14:19:30;101090.31;;;25.06;30.65
59240;BME280;45010;53.640;10.578;2023-03-04T14:22:39;101084.03;;;25.01;30.50
59240;BME280;45010;53.640;10.578;2023-03-04T14:25:39;101085.81;;;25.07;30.79
59240;BME280;45010;53.640;10.578;2023-03-04T14:28:48;101077.44;;;25.03;30.81
59240;BME280;45010;53.640;10.578;2023-03-04T14:31:50;101074.91;;;25.08;30.84
59240;BME280;45010;53.640;10.578;2023-03-04T14:34:55;101072.09;;;25.03;30.70
59240;BME280;45010;53.640;10.578;2023-03-04T14:38:00;101080.25;;;25.08;30.82
59240;BME280;45010;53.640;10.578;2023-03-04T14:41:05;101066.16;;;25.01;30.60
59240;BME280;45010;53.640;10.578;2023-03-04T14:44:22;101081.25;;;25.07;30.50
59240;BME280;45010;53.640;10.578;2023-03-04T14:47:51;101066.75;;;25.03;30.63
59240;BME280;45010;53.640;10.578;2023-03-04T14:50:54;101078.59;;;25.07;30.90
59240;BME280;45010;53.640;10.578;2023-03-04T14:53:55;101064.09;;;25.03;30.74
59240;BME280;45010;53.640;10.578;2023-03-04T14:56:57;101078.59;;;25.07;30.77
59240;BME280;45010;53.640;10.578;2023-03-04T15:00:22;101064.53;;;25.00;30.73
59240;BME280;45010;53.640;10.578;2023-03-04T15:03:28;101073.25;;;25.07;30.78
59240;BME280;45010;53.640;10.578;2023-03-04T15:06:37;101067.91;;;25.07;30.68
59240;BME280;45010;53.640;10.578;2023-03-04T15:09:39;101066.06;;;25.08;30.57
59240;BME280;45010;53.640;10.578;2023-03-04T15:12:40;101060.53;;;25.09;30.92
59240;BME280;45010;53.640;10.578;2023-03-04T15:15:43;101047.03;;;25.04;30.75
59240;BME280;45010;53.640;10.578;2023-03-04T15:19:03;101061.56;;;25.08;30.77
59240;BME280;45010;53.640;10.578;2023-03-04T15:22:07;101064.22;;;25.08;30.63
59240;BME280;45010;53.640;10.578;2023-03-04T15:25:11;101069.56;;;25.08;30.75
59240;BME280;45010;53.640;10.578;2023-03-04T15:28:17;101048.38;;;24.95;30.54
59240;BME280;45010;53.640;10.578;2023-03-04T15:31:23;101061.78;;;25.07;30.61
59240;BME280;45010;53.640;10.578;2023-03-04T15:34:27;101064.22;;;25.08;30.70
59240;BME280;45010;53.640;10.578;2023-03-04T15:37:28;101064.22;;;25.08;30.50
59240;BME280;45010;53.640;10.578;2023-03-04T15:40:37;101059.81;;;25.02;30.72
59240;BME280;45010;53.640;10.578;2023-03-04T15:43:39;101069.56;;;25.08;30.96
59240;BME280;45010;53.640;10.578;2023-03-04T15:46:39;101008.38;;;24.76;30.80
59240;BME280;45010;53.640;10.578;2023-03-04T15:49:40;101070.16;;;25.10;30.75
59240;BME280;45010;53.640;10.578;2023-03-04T15:52:41;101034.47;;;24.93;30.89
59240;BME280;45010;53.640;10.578;2023-03-04T15:55:44;101064.22;;;25.08;30.81
59240;BME280;45010;53.640;10.578;2023-03-04T15:58:49;101043.03;;;24.95;30.97
59240;BME280;45010;53.640;10.578;2023-03-04T16:01:51;101061.31;;;25.10;30.85
59240;BME280;45010;53.640;10.578;2023-03-04T16:04:52;101065.03;;;25.09;30.76
59240;BME280;45010;53.640;10.578;2023-03-04T16:07:53;101064.22;;;25.08;30.84
59240;BME280;45010;53.640;10.578;2023-03-04T16:10:53;101059.91;;;25.07;30.80
59240;BME280;45010;53.640;10.578;2023-03-04T16:13:54;101067.91;;;25.07;30.82
59240;BME280;45010;53.640;10.578;2023-03-04T16:16:54;101063.41;;;25.08;30.85
59240;BME280;45010;53.640;10.578;2023-03-04T16:19:55;101064.22;;;25.08;30.65
59240;BME280;45010;53.640;10.578;2023-03-04T16:22:57;101040.97;;;24.97;30.70
59240;BME280;45010;53.640;10.578;2023-03-04T16:25:58;101055.63;;;25.06;30.68
59240;BME280;45010;53.640;10.578;2023-03-04T16:28:58;101054.00;;;25.05;30.22
59240;BME280;45010;53.640;10.578;2023-03-04T16:31:59;101052.38;;;25.04;30.33
59240;BME280;45010;53.640;10.578;2023-03-04T16:34:59;101045.16;;;25.05;30.36
59240;BME280;45010;53.640;10.578;2023-03-04T16:38:00;101022.75;;;24.94;30.53
59240;BME280;45010;53.640;10.578;2023-03-04T16:41:01;101039.59;;;25.06;30.62
59240;BME280;45010;53.640;10.578;2023-03-04T16:44:01;101035.09;;;25.07;30.56
59240;BME280;45010;53.640;10.578;2023-03-04T16:47:02;101029.75;;;25.07;30.68
59240;BME280;45010;53.640;10.578;2023-03-04T16:50:04;101028.94;;;25.06;30.69
59240;BME280;45010;53.640;10.578;2023-03-04T16:53:22;101033.22;;;25.07;30.52
59240;BME280;45010;53.640;10.578;2023-03-04T16:56:22;101034.28;;;25.06;30.48